Terminal Aerodrome Forecast
Issued by NWS Sioux Falls, SD

Home | Current Version | Previous Version | Graphics & Text | Print | Product List | Glossary On
Versions: 1 2 3 4 5 6 7 8 9 10 11 12 13 14 15 16 17 18
000
FTUS43 KFSD 231124
TAFHON
TAF
KHON 231124Z 2312/2412 11005KT P6SM BKN080
     FM231400 13009KT P6SM SCT090
     FM231600 14012G18KT P6SM SKC
     FM232100 15015G23KT P6SM SCT250
     FM240100 15012G18KT P6SM SCT060 BKN150
     FM240700 16012G18KT P6SM BKN050=

USA.gov is the U.S. government's official web portal to all federal, state and local government web resources and services.